Terminal Aerodrome Forecast
Issued by NWS

Home | Current Version | Previous Version | Text Only | Print | Product List | Glossary On
Versions: 1 2 3 4 5 6 7 8 9 10 11 12 13 14 15 16 17 18 19 20 21 22 23 24 25 26 27
000
FTUS43 KDLH 281500 AAB
TAFBRD
TAF AMD
KBRD 281552Z 2816/2912 17009KT 3SM BR OVC005
     FM281800 18009KT 4SM BR OVC006
     FM290200 VRB03KT 6SM BR VCSH OVC004
     FM290700 32018G26KT P6SM SCT007 BKN015=

USA.gov is the U.S. government's official web portal to all federal, state and local government web resources and services.